Tiempo atmosférico en la estación meteorológica de Pedrosa Del Príncipe, Burgos (771 m.)



Fecha
DESCASC
Temp. máxima en grados centígrados (hora)
DESCASC
Temp. mínima en grados centígrados (hora)
DESCASC
Temp. media en grados centígrados
DESCASC
Racha de viento máxima en m/sg (hora)
DESCASC
Velocidad máxima media en intervalos de 10 minutos(hora)
DESCASC
Precipitaciones diarias en mm
DESCASC
Precipitaciones de 00:00 a 06:00 en mm
DESCASC
Precipitaciones de 06:00 a 12:00 en mm
DESCASC
Precipitaciones de 12:00 a 18:00 en mm
DESCASC
Precipitaciones de 18:00 a 24:00 en mm
DESCASC
20-10-2019 12 (00:00) 5.1 (23:59) 8.5 9.17 (04:20) 5.28 (04:20) 3.8 0 0.8 3 0
19-10-2019 14.8 (15:30) 10.7 (07:10) 12.8 10.83 (13:10) 6.39 (13:20) 10.4 0 0.2 0.2 10
18-10-2019 16.1 (14:20) 11.4 (08:40) 13.8 8.33 (14:50) 4.72 (14:50) 0.6 0.4 0 0.2 0
17-10-2019 19 (17:00) 11 (00:00) 15 11.67 (16:50) 6.67 (16:00) 14.4 13.8 0.4 0.2 0
16-10-2019 17.7 (17:50) 9.3 (00:00) 13.5 11.39 (14:20) 6.39 (14:10) 1 0 0 0 1
15-10-2019 14.4 (17:10) 4 (00:00) 9.2 8.33 (14:00) 5.28 (15:10) 0 0 0 0 0
14-10-2019 16.5 (06:20) 6.5 (00:00) 11.5 15.56 (11:10) 8.33 (11:10) 2.8 0 0.2 1.6 1
13-10-2019 23.7 (17:30) 10.6 (00:00) 17.2 12.5 (17:50) 6.94 (17:50) 0 0 0 0 0
12-10-2019 26.3 (16:50) 12.3 (00:00) 19.3 13.61 (18:50) 8.33 (16:30) 0.2 0.2 0 0 0
11-10-2019 28 (16:30) 3.2 (00:00) 15.6 9.17 (21:50) 5 (21:50) 1.6 0 0 0 1.6
10-10-2019 23.5 (17:00) 5.3 (00:00) 14.4 6.94 (13:10) 3.89 (03:00) 0 0 0 0 0
09-10-2019 20.6 (16:20) 9.8 (00:00) 15.2 10 (22:20) 5.56 (22:20) 0 0 0 0 0
08-10-2019 27.8 (16:10) 5.4 (00:00) 16.6 8.61 (14:40) 5 (15:20) 0 0 0 0 0
07-10-2019 25.6 (17:00) 5.5 (00:00) 15.6 4.17 (01:50) 2.5 (01:40) 0 0 0 0 0
06-10-2019 23.3 (18:40) 7.7 (00:00) 15.5 6.67 (19:50) 3.61 (19:50) 0 0 0 0 0
05-10-2019 25 (17:00) 6.5 (00:00) 15.8 5.28 (17:10) 3.06 (22:50) 0 0 0 0 0
04-10-2019 24.4 (15:20) 5.2 (00:00) 14.8 6.39 (16:30) 3.33 (21:40) 0 0 0 0 0
03-10-2019 24.4 (17:50) 4.6 (00:00) 14.5 6.11 (14:00) 3.06 (15:10) 0 0 0 0 0
02-10-2019 21.4 (16:40) 5.3 (00:00) 13.3 6.94 (14:40) 3.61 (23:00) 0 0 0 0 0
01-10-2019 23.8 (17:20) 9.4 (00:00) 16.6 10.83 (14:40) 6.11 (15:20) 0 0 0 0 0
30-09-2019 26.8 (17:00) 7.8 (00:00) 17.3 6.67 (17:40) 3.33 (17:20) 0 0 0 0 0
29-09-2019 27.4 (16:50) 5.4 (00:00) 16.4 8.61 (15:50) 5.28 (16:10) 0 0 0 0 0
28-09-2019 25.6 (17:20) 7.7 (00:00) 16.7 5.83 (17:30) 3.06 (16:40) 0 0 0 0 0
27-09-2019 24.7 (17:20) 4.7 (00:00) 14.7 9.72 (16:10) 5.28 (15:00) 0 0 0 0 0
26-09-2019 25 (17:30) 7.7 (00:00) 16.3 7.78 (16:00) 4.44 (16:00) 0 0 0 0 0
25-09-2019 20.9 (16:30) 7.6 (00:00) 14.2 6.94 (17:00) 3.61 (15:00) 0 0 0 0 0
24-09-2019 23.1 (16:20) 10.2 (00:00) 16.7 13.33 (16:00) 8.06 (16:40) 0 0 0 0 0
23-09-2019 20.6 (16:50) 8.3 (00:00) 14.5 8.33 (16:30) 4.72 (14:20) 0 0 0 0 0
22-09-2019 19.3 (17:20) 8.7 (00:00) 14 10.28 (03:10) 6.39 (03:20) 7.8 7.8 0 0 0

Gráficas

Temp. máximas Temp. mínimas Temp. medias Precipitaciones Rachas de viento máximas Velocidades máximas media en intervalos de 10 minutos

Datos horarios

Fecha y hora oficial Temperatura (ºC) Velocidad del viento (km/h) Dirección del viento Racha (km/h) Dirección de racha Precipitación (mm) Presión (hPa) Tendencia (hPa) Humedad (%)
2019-10-21 23:00:00 7.8 15 Sur 33 Sudeste 0 -- -- 80
2019-10-21 22:00:00 7.9 5 Nordeste 12 Nordeste 0 -- -- 82
2019-10-21 21:00:00 7.4 6 Nordeste 10 Norte 0 -- -- 84
2019-10-21 20:00:00 9.4 3 Este 6 Nordeste 0 -- -- 76
2019-10-21 19:00:00 11.1 4 Nordeste 10 Nordeste 0 -- -- 69
2019-10-21 18:00:00 12.4 6 Nordeste 12 Norte 0 -- -- 65
2019-10-21 17:00:00 13.5 4 Oeste 12 Noroeste 0 -- -- 58
2019-10-21 16:00:00 13.4 8 Oeste 12 Oeste 0 -- -- 60
2019-10-21 15:00:00 11.2 0 Calma 9 Sudoeste 0 -- -- 73
2019-10-21 14:00:00 10.7 5 Oeste 11 Sudoeste 0 -- -- 79
2019-10-21 13:00:00 9.5 6 Sudoeste 12 Sur 0 -- -- 82
2019-10-21 12:00:00 8.5 4 Sudeste 12 Sur 0 -- -- 84
2019-10-21 11:00:00 7.1 0 Calma 6 Nordeste 0 -- -- 94
2019-10-21 10:00:00 6.3 2 Este 7 Este 0 -- -- 96
2019-10-21 09:00:00 5.4 3 Sudoeste 6 Sudoeste 0.2 -- -- 96
2019-10-21 08:00:00 5.4 0 Calma 5 Oeste 0 -- -- 96
2019-10-21 07:00:00 5.5 4 Oeste 6 Sudoeste 0 -- -- 96
2019-10-21 06:00:00 5.4 0 Calma 6 Oeste 0 -- -- 96
2019-10-21 05:00:00 5.2 3 Sudoeste 4 Sudoeste 0 -- -- 96
2019-10-21 04:00:00 5 0 Calma 3 Oeste 0 -- -- 96
2019-10-21 03:00:00 4.3 0 Calma 6 Sudeste 0 -- -- 96
2019-10-21 02:00:00 3.8 0 Calma 3 Oeste 0 -- -- 94
2019-10-21 01:00:00 4.5 0 Calma 3 Nordeste 0 -- -- 94
2019-10-21 00:00:00 5.1 0 Calma 8 Sudoeste 0 -- -- 91
2019-10-20 23:00:00 6.5 4 Sudoeste 12 Sudeste 0 -- -- 91
2019-10-20 22:00:00 7 6 Sudeste 12 Sudeste 0 -- -- 91
2019-10-20 21:00:00 7.5 4 Sur 9 Sudeste 0 -- -- 90
2019-10-20 20:00:00 7.6 3 Nordeste 13 Sur 0 -- -- 90
2019-10-20 19:00:00 7.7 3 Sudoeste 9 Sur 0 -- -- 88
2019-10-20 18:00:00 7.6 0 Calma 3 Sur 0.2 -- -- 86
2019-10-20 17:00:00 7.4 0 Calma 19 Noroeste 1 -- -- 86
2019-10-20 16:00:00 7.7 9 Noroeste 17 Noroeste 0.2 -- -- 87
2019-10-20 15:00:00 7.4 14 Noroeste 20 Noroeste 0.4 -- -- 88
2019-10-20 14:00:00 7.4 7 Norte 18 Norte 0.8 -- -- 88
2019-10-20 13:00:00 7.3 10 Norte 18 Norte 0.4 -- -- 89
2019-10-20 12:00:00 7.2 7 Norte 19 Nordeste 0.6 -- -- 89
2019-10-20 11:00:00 7.3 10 Nordeste 20 Nordeste 0.2 -- -- 87
2019-10-20 10:00:00 7.6 7 Nordeste 25 Este 0 -- -- 90
2019-10-20 09:00:00 7.6 10 Norte 23 Oeste 0 -- -- 92
2019-10-20 08:00:00 7.6 9 Oeste 28 Sudoeste 0 -- -- 91
2019-10-20 07:00:00 7.9 15 Sudoeste 28 Sudoeste 0 -- -- 89
2019-10-20 06:00:00 8.8 13 Sudoeste 28 Sudoeste 0 -- -- 90
2019-10-20 05:00:00 8.5 14 Sur 33 Sudoeste 0 -- -- 89
2019-10-20 04:00:00 9.4 12 Sudoeste 28 Sudoeste 0 -- -- 88
2019-10-20 03:00:00 10.1 9 Sudoeste 29 Sudoeste 0 -- -- 87
2019-10-20 02:00:00 11.1 12 Sudoeste 26 Sudoeste 0 -- -- 86
2019-10-20 01:00:00 11.7 10 Sudoeste 22 Sudoeste 0 -- -- 89
2019-10-20 00:00:00 12 14 Sudoeste 27 Sudoeste 0.2 -- -- 87
2019-10-19 23:00:00 12 10 Sur 24 Sur 2.2 -- -- 90
2019-10-19 22:00:00 12.1 10 Sur 17 Sur 0.8 -- -- 91
2019-10-19 21:00:00 11.2 3 Sudoeste 23 Sudoeste 3 -- -- 91
2019-10-19 20:00:00 12.1 18 Sudoeste 31 Sur 3.6 -- -- 86
2019-10-19 19:00:00 13.9 18 Sur 31 Sur 0.2 -- -- 74
2019-10-19 18:00:00 14.4 10 Sur 20 Sur 0 -- -- 70
2019-10-19 17:00:00 13.6 10 Sudoeste 26 Sur 0.2 -- -- 74
2019-10-19 16:00:00 14.3 15 Sudoeste 39 Sudoeste 0 -- -- 66
2019-10-19 15:00:00 14.6 17 Sudoeste 28 Sudoeste 0 -- -- 68
2019-10-19 14:00:00 13.3 18 Sudoeste 39 Sudoeste 0 -- -- 75
2019-10-19 13:00:00 13.9 16 Sudoeste 32 Sudoeste 0 -- -- 73
2019-10-19 12:00:00 12.6 18 Sudoeste 33 Sudoeste 0 -- -- 78
2019-10-19 11:00:00 11.5 15 Sudoeste 30 Sudoeste 0 -- -- 82
2019-10-19 10:00:00 11.1 11 Sudoeste 24 Sur 0.2 -- -- 85
2019-10-19 09:00:00 10.7 11 Sudoeste 25 Sur 0 -- -- 86
2019-10-19 08:00:00 10.8 10 Sudoeste 17 Sudoeste 0 -- -- 86
2019-10-19 07:00:00 10.8 13 Sudoeste 22 Sudoeste 0 -- -- 86
2019-10-19 06:00:00 11.1 10 Sudoeste 21 Sur 0 -- -- 85
2019-10-19 05:00:00 11.1 7 Sudoeste 14 Sur 0 -- -- 83
2019-10-19 04:00:00 11.5 8 Sudoeste 20 Sudoeste 0 -- -- 80
2019-10-19 03:00:00 11.7 10 Sudoeste 20 Sudoeste 0 -- -- 79
2019-10-19 02:00:00 11.8 8 Sudoeste 16 Sudoeste 0 -- -- 78
2019-10-19 01:00:00 12.1 10 Sudoeste 22 Sudoeste 0 -- -- 76
2019-10-19 00:00:00 11.9 10 Sudoeste 18 Sudoeste 0 -- -- 76
2019-10-18 23:00:00 12.2 12 Sudoeste 20 Sudoeste 0 -- -- 73
2019-10-18 22:00:00 12.2 9 Sudoeste 18 Sudoeste 0 -- -- 73
2019-10-18 21:00:00 13 8 Sudoeste 16 Sur 0 -- -- 71
2019-10-18 20:00:00 13.5 7 Oeste 18 Oeste 0 -- -- 71
2019-10-18 19:00:00 14.1 8 Sudoeste 21 Oeste 0 -- -- 70
2019-10-18 18:00:00 14.7 14 Oeste 25 Oeste 0 -- -- 65
2019-10-18 17:00:00 15.7 14 Oeste 27 Sudoeste 0 -- -- 59
2019-10-18 16:00:00 15.3 16 Oeste 26 Sudoeste 0 -- -- 61
2019-10-18 15:00:00 15.4 15 Oeste 30 Sudoeste 0 -- -- 59
2019-10-18 14:00:00 15.8 17 Oeste 27 Oeste 0 -- -- 61
2019-10-18 13:00:00 14.8 13 Oeste 24 Oeste 0.2 -- -- 70
2019-10-18 12:00:00 14.1 13 Sudoeste 23 Sudoeste 0 -- -- 71
2019-10-18 11:00:00 12.7 11 Sudoeste 18 Sudoeste 0 -- -- 78
2019-10-18 10:00:00 11.8 9 Sudoeste 15 Oeste 0 -- -- 88
2019-10-18 09:00:00 11.4 6 Sudoeste 10 Sudoeste 0 -- -- 87
2019-10-18 08:00:00 11.9 5 Sudoeste 10 Sudoeste 0 -- -- 90
2019-10-18 07:00:00 12.7 4 Oeste 16 Sudoeste 0 -- -- 90
2019-10-18 06:00:00 13.5 8 Oeste 25 Oeste 0 -- -- 90
2019-10-18 05:00:00 14.2 11 Oeste 23 Oeste 0 -- -- 89
2019-10-18 04:00:00 14.4 12 Oeste 22 Oeste 0 -- -- 90
2019-10-18 03:00:00 14.4 9 Sudoeste 25 Sudoeste 0 -- -- 91
2019-10-18 02:00:00 14.4 16 Sudoeste 24 Sudoeste 0 -- -- 91
2019-10-18 01:00:00 14.7 12 Sudoeste 28 Sudoeste 0.4 -- -- 90
2019-10-18 00:00:00 14.8 13 Sudoeste 32 Sudoeste 0 -- -- 88
2019-10-17 23:00:00 14.8 8 Sudoeste 21 Sudoeste 0 -- -- 83
2019-10-17 22:00:00 14.7 9 Oeste 31 Sur 0 -- -- 84
2019-10-17 21:00:00 15.3 12 Sudoeste 28 Sudoeste 0 -- -- 76
2019-10-17 20:00:00 16.2 14 Oeste 30 Oeste 0 -- -- 72
2019-10-17 19:00:00 17.4 12 Sudoeste 30 Sudoeste 0 -- -- 68
2019-10-17 18:00:00 18.2 18 Sudoeste 42 Oeste 0 -- -- 63
2019-10-17 17:00:00 19 21 Oeste 42 Oeste 0 -- -- 59
2019-10-17 16:00:00 18.3 24 Sudoeste 38 Sudoeste 0.2 -- -- 63
2019-10-17 15:00:00 17.8 23 Oeste 37 Sudoeste 0 -- -- 69
2019-10-17 14:00:00 16.2 18 Oeste 33 Sudoeste 0 -- -- 77
2019-10-17 13:00:00 14.5 12 Oeste 26 Oeste 0 -- -- 90
2019-10-17 12:00:00 12.8 10 Sudoeste 23 Sudoeste 0 -- -- 94
2019-10-17 11:00:00 12.1 14 Sudoeste 28 Sudoeste 0 -- -- 94
2019-10-17 10:00:00 11.6 13 Sudoeste 23 Sudoeste 0 -- -- 93
2019-10-17 09:00:00 11.3 12 Sudoeste 27 Sudoeste 0.2 -- -- 93
2019-10-17 08:00:00 11.1 13 Sudoeste 25 Sudoeste 0 -- -- 93
2019-10-17 07:00:00 11.2 14 Sudoeste 25 Sudoeste 0.2 -- -- 91
2019-10-17 06:00:00 11.1 10 Sudoeste 19 Sur 1 -- -- 91
2019-10-17 05:00:00 11 6 Sur 20 Oeste 3.8 -- -- 91
2019-10-17 04:00:00 11.1 8 Sudoeste 18 Sur 5.6 -- -- 92
2019-10-17 03:00:00 11.3 9 Sudoeste 18 Sudoeste 1.6 -- -- 92
2019-10-17 02:00:00 11.5 9 Sudoeste 22 Sudoeste 1.4 -- -- 91
2019-10-17 01:00:00 11.7 12 Sudoeste 21 Sudoeste 0.4 -- -- 91
2019-10-17 00:00:00 12.1 11 Sudoeste 25 Sudoeste 0.8 -- -- 88
2019-10-16 23:00:00 13.3 8 Oeste 26 Sur 0.2 -- -- 81
2019-10-16 22:00:00 14.9 9 Oeste 17 Oeste 0 -- -- 66
2019-10-16 21:00:00 15 5 Sudoeste 13 Sudoeste 0 -- -- 64
2019-10-16 20:00:00 15.4 2 Sudoeste 18 Oeste 0 -- -- 62
2019-10-16 19:00:00 16.3 9 Oeste 28 Oeste 0 -- -- 58
2019-10-16 18:00:00 17.6 14 Oeste 28 Sudoeste 0 -- -- 54
2019-10-16 17:00:00 17 15 Oeste 30 Sudoeste 0 -- -- 56
2019-10-16 16:00:00 15.8 15 Oeste 30 Oeste 0 -- -- 58
2019-10-16 15:00:00 15.1 21 Oeste 41 Sudoeste 0 -- -- 59
2019-10-16 14:00:00 14.6 18 Sudoeste 36 Sudoeste 0 -- -- 61
2019-10-16 13:00:00 14.4 20 Sudoeste 38 Sudoeste 0 -- -- 62
2019-10-16 12:00:00 13.3 20 Sudoeste 36 Sudoeste 0 -- -- 65
2019-10-16 11:00:00 11.7 14 Sudoeste 29 Sur 0 -- -- 71
2019-10-16 10:00:00 10.5 14 Sudoeste 26 Sudoeste 0 -- -- 71
2019-10-16 09:00:00 9.8 10 Sudoeste 20 Sudoeste 0 -- -- 80
2019-10-16 08:00:00 9.7 12 Sudoeste 25 Sudoeste 0 -- -- 80
2019-10-16 07:00:00 9.7 14 Sudoeste 24 Sudoeste 0 -- -- 79
2019-10-16 06:00:00 9.9 13 Sudoeste 24 Sudoeste 0 -- -- 76
2019-10-16 05:00:00 9.3 8 Sudoeste 24 Sudoeste 0 -- -- 77
2019-10-16 04:00:00 10.2 14 Sudoeste 29 Oeste 0 -- -- 75
2019-10-16 03:00:00 10.4 14 Sudoeste 27 Sudoeste 0 -- -- 78
2019-10-16 02:00:00 10.4 12 Sudoeste 22 Sudoeste 0 -- -- 77
2019-10-16 01:00:00 10.5 10 Sudoeste 20 Sudoeste 0 -- -- 76
2019-10-16 00:00:00 10.6 11 Sudoeste 19 Sudoeste 0 -- -- 73
2019-10-15 23:00:00 10.5 7 Sudoeste 12 Sudoeste 0 -- -- 73
2019-10-15 22:00:00 10.9 7 Sudoeste 17 Sudoeste 0 -- -- 72
2019-10-15 21:00:00 11.1 9 Sudoeste 23 Sudoeste 0 -- -- 70
2019-10-15 20:00:00 12 13 Oeste 30 Sudoeste 0 -- -- 66
2019-10-15 19:00:00 12.6 12 Sudoeste 28 Sudoeste 0 -- -- 62
2019-10-15 18:00:00 13.4 14 Sudoeste 30 Sudoeste 0 -- -- 57
2019-10-15 17:00:00 14.3 14 Sudoeste 29 Sudoeste 0 -- -- 53
2019-10-15 16:00:00 12.9 16 Sudoeste 30 Oeste 0 -- -- 58
2019-10-15 15:00:00 13.3 16 Oeste 30 Sudoeste 0 -- -- 57
2019-10-15 14:00:00 12.5 18 Sudoeste 30 Oeste 0 -- -- 62
2019-10-15 13:00:00 11.5 15 Sudoeste 30 Sudoeste 0 -- -- 73
2019-10-15 12:00:00 9.5 16 Oeste 27 Oeste 0 -- -- 79
2019-10-15 11:00:00 7.6 13 Oeste 23 Oeste 0 -- -- 84
2019-10-15 10:00:00 6.3 13 Sudoeste 21 Oeste 0 -- -- 88
2019-10-15 09:00:00 4.5 12 Sudoeste 21 Sudoeste 0 -- -- 92
2019-10-15 08:00:00 4.3 10 Sudoeste 17 Sudoeste 0 -- -- 92
2019-10-15 07:00:00 4.2 12 Sudoeste 18 Sudoeste 0 -- -- 91
2019-10-15 06:00:00 4.5 9 Sudoeste 17 Sudoeste 0 -- -- 90
2019-10-15 05:00:00 4.8 8 Sudoeste 22 Sudoeste 0 -- -- 89
2019-10-15 04:00:00 4.9 8 Sudoeste 19 Oeste 0 -- -- 88
2019-10-15 03:00:00 5.7 11 Sudoeste 23 Oeste 0 -- -- 85
2019-10-15 02:00:00 5.8 13 Sudoeste 30 Sudoeste 0 -- -- 86
2019-10-15 01:00:00 6.2 12 Sudoeste 25 Sudoeste 0 -- -- 88
2019-10-15 00:00:00 6.5 13 Sudoeste 24 Sudoeste 0 -- -- 82
2019-10-14 23:00:00 7.4 15 Sudoeste 35 Sudoeste 0.4 -- -- 83
2019-10-14 22:00:00 8.5 27 Sudoeste 42 Sudoeste 0.2 -- -- 86
2019-10-14 21:00:00 8.3 9 Sudoeste 17 Sudoeste 0 -- -- 87
2019-10-14 20:00:00 8.6 10 Sudoeste 32 Oeste 0 -- -- 83
2019-10-14 19:00:00 9.9 22 Oeste 38 Oeste 0.4 -- -- 81
2019-10-14 18:00:00 11 19 Sudoeste 39 Sudoeste 0.6 -- -- 86
2019-10-14 17:00:00 11.3 14 Sudoeste 26 Sudoeste 0.8 -- -- 86
2019-10-14 16:00:00 11.7 13 Oeste 44 Sudoeste 0.2 -- -- 84
2019-10-14 15:00:00 15.3 25 Sudoeste 43 Sudoeste 0 -- -- 51
2019-10-14 14:00:00 15.4 23 Sudoeste 47 Oeste 0 -- -- 54
2019-10-14 13:00:00 15.5 22 Oeste 42 Sudoeste 0 -- -- 57
2019-10-14 12:00:00 13.8 23 Oeste 56 Sudoeste 0 -- -- 68
2019-10-14 11:00:00 15.2 19 Sudoeste 39 Sudoeste 0 -- -- 71
2019-10-14 10:00:00 14.4 14 Sudoeste 23 Sudoeste 0.2 -- -- 74
2019-10-14 09:00:00 12 4 Oeste 9 Noroeste 0 -- -- 76
2019-10-14 08:00:00 13.8 4 Sudoeste 22 Sur 0 -- -- 65
2019-10-14 07:00:00 16.1 11 Sur 25 Sur 0 -- -- 58
2019-10-14 06:00:00 16.1 10 Sur 19 Sur 0 -- -- 56
2019-10-14 05:00:00 14.3 0 Calma 17 Sur 0 -- -- 67
2019-10-14 04:00:00 13.7 4 Sudoeste 11 Sudoeste 0 -- -- 67
2019-10-14 03:00:00 11.2 4 Oeste 8 Oeste 0 -- -- 76
2019-10-14 02:00:00 11.1 3 Oeste 10 Oeste 0 -- -- 75
2019-10-14 01:00:00 10.5 3 Sudoeste 8 Oeste 0 -- -- 73
2019-10-14 00:00:00 10.6 0 Calma 4 Sudoeste 0 -- -- 72
2019-10-13 23:00:00 13.8 2 Sudoeste 8 Sudoeste 0 -- -- 63
2019-10-13 22:00:00 16.8 8 Sudoeste 26 Sudoeste 0 -- -- 49
2019-10-13 21:00:00 17.8 11 Sudoeste 25 Sudoeste 0 -- -- 43
2019-10-13 20:00:00 19.4 8 Sudoeste 22 Sudoeste 0 -- -- 41
2019-10-13 19:00:00 22.3 15 Sudoeste 43 Sudoeste 0 -- -- 35
2019-10-13 18:00:00 23.4 20 Sudoeste 45 Sudoeste 0 -- -- 33
2019-10-13 17:00:00 23.4 19 Sudoeste 37 Sudoeste 0 -- -- 40
2019-10-13 16:00:00 23 17 Sudoeste 35 Sudoeste 0 -- -- 43
2019-10-13 15:00:00 22.2 16 Sudoeste 33 Sudoeste 0 -- -- 45
2019-10-13 14:00:00 20.9 13 Sudoeste 23 Oeste 0 -- -- 54
2019-10-13 13:00:00 18.8 9 Oeste 23 Oeste 0 -- -- 62
2019-10-13 12:00:00 16.6 9 Oeste 21 Noroeste 0 -- -- 70
2019-10-13 11:00:00 15.7 9 Oeste 22 Oeste 0 -- -- 75
2019-10-13 10:00:00 15.5 12 Sudoeste 20 Sudoeste 0 -- -- 76
2019-10-13 09:00:00 14.2 11 Sudoeste 18 Sudoeste 0 -- -- 79
2019-10-13 08:00:00 12.7 6 Sudoeste 11 Sudoeste 0 -- -- 77
2019-10-13 07:00:00 13.1 4 Sudoeste 15 Oeste 0 -- -- 71
2019-10-13 06:00:00 15.8 9 Oeste 27 Sur 0 -- -- 62
2019-10-13 05:00:00 16.9 13 Sur 29 Sur 0 -- -- 56
2019-10-13 04:00:00 17.2 15 Sur 34 Sur 0 -- -- 54
2019-10-13 03:00:00 17.3 14 Sur 24 Sudeste 0 -- -- 53
2019-10-13 02:00:00 17.8 12 Sur 30 Sur 0 -- -- 54
2019-10-13 01:00:00 18.9 13 Sur 30 Sur 0 -- -- 52
2019-10-13 00:00:00 20.1 14 Sur 30 Sur 0 -- -- 47
2019-10-12 23:00:00 20.1 14 Sur 31 Sur 0 -- -- 48
2019-10-12 22:00:00 20.7 15 Sur 28 Sur 0 -- -- 46
2019-10-12 21:00:00 20.9 11 Sur 22 Sur 0 -- -- 48
2019-10-12 20:00:00 20.3 10 Sur 24 Sur 0 -- -- 53
2019-10-12 19:00:00 21.7 25 Sur 49 Sudoeste 0 -- -- 46
2019-10-12 18:00:00 26.2 21 Sudoeste 41 Sudoeste 0 -- -- 32
2019-10-12 17:00:00 26 22 Sudoeste 47 Sudoeste 0 -- -- 32
2019-10-12 16:00:00 25.1 23 Sudoeste 43 Sudoeste 0 -- -- 36
2019-10-12 15:00:00 25.9 18 Sudoeste 38 Sudoeste 0 -- -- 38
2019-10-12 14:00:00 24.9 20 Sudoeste 34 Sur 0 -- -- 41
2019-10-12 13:00:00 23.5 17 Sudoeste 28 Sur 0 -- -- 48
2019-10-12 12:00:00 21.2 13 Sudoeste 22 Sudoeste 0 -- -- 60
2019-10-12 11:00:00 17.4 6 Sudoeste 16 Sudoeste 0 -- -- 78
2019-10-12 10:00:00 15 6 Sudoeste 12 Sudoeste 0 -- -- 85
2019-10-12 09:00:00 13.5 2 Sudoeste 9 Sudoeste 0 -- -- 89
2019-10-12 08:00:00 12.3 2 Oeste 5 Oeste 0 -- -- 91
2019-10-12 07:00:00 13.4 0 Calma 5 Noroeste 0 -- -- 90
2019-10-12 06:00:00 13.2 2 Noroeste 5 Oeste 0 -- -- 91
2019-10-12 05:00:00 13.3 0 Calma 5 Oeste 0.2 -- -- 91
2019-10-12 04:00:00 13.3 0 Calma 3 Oeste 0 -- -- 91
2019-10-12 03:00:00 13.4 2 Noroeste 5 Noroeste 0 -- -- 90
2019-10-12 02:00:00 14.2 0 Calma 11 Sur 0 -- -- 85
2019-10-12 01:00:00 14.6 4 Sudoeste 9 Sur 0 -- -- 89
2019-10-12 00:00:00 15.6 3 Este 6 Este 0 -- -- 86
2019-10-11 23:00:00 16.5 4 Nordeste 13 Sudoeste 0.4 -- -- 86
2019-10-11 22:00:00 18.4 6 Sudoeste 33 Sur 1.2 -- -- 76
2019-10-11 21:00:00 19.7 9 Sudeste 15 Sudeste 0 -- -- 66
2019-10-11 20:00:00 21.4 0 Calma 8 Oeste 0 -- -- 51
2019-10-11 19:00:00 25.4 6 Oeste 19 Noroeste 0 -- -- 39
2019-10-11 18:00:00 26.5 9 Oeste 23 Oeste 0 -- -- 37
2019-10-11 17:00:00 27.7 12 Oeste 23 Oeste 0 -- -- 33
2019-10-11 16:00:00 27.5 11 Oeste 24 Oeste 0 -- -- 34
2019-10-11 15:00:00 26.6 13 Oeste 30 Sudoeste 0 -- -- 35
2019-10-11 14:00:00 25.7 10 Sudoeste 22 Oeste 0 -- -- 35
2019-10-11 13:00:00 22.4 9 Oeste 14 Oeste 0 -- -- 45
2019-10-11 12:00:00 18.1 3 Sudoeste 7 Sudoeste 0 -- -- 58
2019-10-11 11:00:00 13 0 Calma 3 Sudoeste 0 -- -- 68
2019-10-11 10:00:00 7.3 0 Calma 2 Norte 0 -- -- 86
2019-10-11 09:00:00 3.6 0 Calma 4 Noroeste 0 -- -- 90
2019-10-11 08:00:00 3.3 0 Calma 3 Este 0 -- -- 90
2019-10-11 07:00:00 3.4 0 Calma 3 Nordeste 0 -- -- 89
2019-10-11 06:00:00 3.9 0 Calma 3 Nordeste 0 -- -- 88
2019-10-11 05:00:00 4.5 0 Calma 2 Noroeste 0 -- -- 88
2019-10-11 04:00:00 5 0 Calma 2 Norte 0 -- -- 87
2019-10-11 03:00:00 5.8 0 Calma 3 Este 0 -- -- 84
2019-10-11 02:00:00 7.2 0 Calma 4 Oeste 0 -- -- 79
2019-10-11 01:00:00 8.1 0 Calma 4 Noroeste 0 -- -- 78
2019-10-11 00:00:00 10.1 2 Nordeste 6 Nordeste 0 -- -- 67
2019-10-10 23:00:00 11 5 Norte 12 Nordeste 0 -- -- 63
2019-10-10 22:00:00 12.4 5 Nordeste 12 Este 0 -- -- 56
2019-10-10 21:00:00 14.2 8 Este 13 Nordeste 0 -- -- 51
2019-10-10 20:00:00 16.9 4 Este 11 Nordeste 0 -- -- 47
2019-10-10 19:00:00 21.6 6 Este 15 Este 0 -- -- 36
2019-10-10 18:00:00 22.6 8 Nordeste 19 Nordeste 0 -- -- 34
2019-10-10 17:00:00 23.5 8 Este 17 Nordeste 0 -- -- 32
2019-10-10 16:00:00 22.4 10 Este 23 Este 0 -- -- 33
2019-10-10 15:00:00 20.9 10 Nordeste 20 Nordeste 0 -- -- 39
2019-10-10 14:00:00 19.6 9 Nordeste 25 Este 0 -- -- 42
2019-10-10 13:00:00 18.6 13 Este 22 Este 0 -- -- 45
2019-10-10 12:00:00 16.7 10 Nordeste 24 Este 0 -- -- 55
2019-10-10 11:00:00 13.7 11 Nordeste 22 Nordeste 0 -- -- 65
2019-10-10 10:00:00 9.7 7 Nordeste 13 Nordeste 0 -- -- 81
2019-10-10 09:00:00 5.3 0 Calma 9 Este 0 -- -- 89
2019-10-10 08:00:00 5.6 3 Nordeste 13 Este 0 -- -- 88
2019-10-10 07:00:00 7 9 Este 14 Este 0 -- -- 87
2019-10-10 06:00:00 6.6 7 Nordeste 12 Nordeste 0 -- -- 88
2019-10-10 05:00:00 7.2 5 Este 14 Este 0 -- -- 86
2019-10-10 04:00:00 7.2 5 Este 21 Este 0 -- -- 84
2019-10-10 03:00:00 8.5 14 Este 22 Este 0 -- -- 81
2019-10-10 02:00:00 8.5 10 Este 19 Este 0 -- -- 81
2019-10-10 01:00:00 8.9 8 Este 18 Nordeste 0 -- -- 79
2019-10-10 00:00:00 9.8 9 Nordeste 23 Este 0 -- -- 76
2019-10-09 23:00:00 10.6 13 Nordeste 36 Nordeste 0 -- -- 73
2019-10-09 22:00:00 11.2 17 Nordeste 33 Este 0 -- -- 71
2019-10-09 21:00:00 11.7 12 Nordeste 29 Nordeste 0 -- -- 67
2019-10-09 20:00:00 13.5 15 Nordeste 32 Nordeste 0 -- -- 65
2019-10-09 19:00:00 17.6 15 Nordeste 28 Nordeste 0 -- -- 51
2019-10-09 18:00:00 19.8 10 Nordeste 20 Nordeste 0 -- -- 44
2019-10-09 17:00:00 20.4 9 Nordeste 22 Nordeste 0 -- -- 44
2019-10-09 16:00:00 20.4 6 Nordeste 21 Nordeste 0 -- -- 45
2019-10-09 15:00:00 19.9 8 Este 18 Nordeste 0 -- -- 45
2019-10-09 14:00:00 18.5 8 Nordeste 26 Nordeste 0 -- -- 52
2019-10-09 13:00:00 18 10 Nordeste 20 Este 0 -- -- 56
2019-10-09 12:00:00 17.2 13 Este 24 Este 0 -- -- 61
2019-10-09 11:00:00 15.4 14 Este 24 Nordeste 0 -- -- 68
2019-10-09 10:00:00 13.2 9 Nordeste 19 Nordeste 0 -- -- 77
2019-10-09 09:00:00 11.5 3 Nordeste 14 Nordeste 0 -- -- 83
2019-10-09 08:00:00 12.5 9 Nordeste 23 Este 0 -- -- 80
2019-10-09 07:00:00 13 8 Este 28 Nordeste 0 -- -- 82
2019-10-09 06:00:00 13.2 13 Nordeste 23 Nordeste 0 -- -- 82
2019-10-09 05:00:00 13 8 Nordeste 15 Nordeste 0 -- -- 86
2019-10-09 04:00:00 12.6 0 Calma 8 Norte 0 -- -- 86
2019-10-09 03:00:00 12.4 2 Nordeste 9 Este 0 -- -- 89
2019-10-09 02:00:00 12.8 0 Calma 12 Este 0 -- -- 84
2019-10-09 01:00:00 12.9 3 Nordeste 10 Norte 0 -- -- 85
2019-10-09 00:00:00 13.7 5 Nordeste 18 Nordeste 0 -- -- 83
2019-10-08 23:00:00 15 3 Norte 17 Nordeste 0 -- -- 80
2019-10-08 22:00:00 16.7 8 Nordeste 24 Nordeste 0 -- -- 75
2019-10-08 21:00:00 18.1 12 Nordeste 24 Nordeste 0 -- -- 71
2019-10-08 20:00:00 22.1 2 Sudeste 12 Oeste 0 -- -- 46
2019-10-08 19:00:00 26.1 7 Oeste 21 Oeste 0 -- -- 39
2019-10-08 18:00:00 27.4 10 Oeste 23 Oeste 0 -- -- 37
2019-10-08 17:00:00 27.5 15 Oeste 30 Oeste 0 -- -- 38
2019-10-08 16:00:00 27.6 14 Oeste 29 Oeste 0 -- -- 35
2019-10-08 15:00:00 26.7 14 Oeste 31 Oeste 0 -- -- 35
2019-10-08 14:00:00 26 14 Oeste 24 Oeste 0 -- -- 34
2019-10-08 13:00:00 24.9 9 Sudoeste 19 Sudoeste 0 -- -- 35
2019-10-08 12:00:00 20.9 5 Oeste 13 Oeste 0 -- -- 45
2019-10-08 11:00:00 15.5 2 Sudoeste 4 Oeste 0 -- -- 59
2019-10-08 10:00:00 10.5 0 Calma 3 Sur 0 -- -- 71
2019-10-08 09:00:00 6 0 Calma 5 Este 0 -- -- 86
2019-10-08 08:00:00 5.8 2 Nordeste 8 Este 0 -- -- 83
2019-10-08 07:00:00 5.4 3 Nordeste 8 Nordeste 0 -- -- 85
2019-10-08 06:00:00 6.2 0 Calma 3 Sudoeste 0 -- -- 86
2019-10-08 05:00:00 6.6 0 Calma 2 Sudoeste 0 -- -- 83
2019-10-08 04:00:00 7.3 0 Calma 3 Norte 0 -- -- 76
2019-10-08 03:00:00 8.2 0 Calma 0 Calma 0 -- -- 77
2019-10-08 02:00:00 9.7 0 Calma 3 Norte 0 -- -- 69
2019-10-08 01:00:00 12 0 Calma 8 Nordeste 0 -- -- 53
2019-10-08 00:00:00 14.6 4 Este 9 Este 0 -- -- 39
2019-10-07 23:00:00 14.5 4 Este 11 Nordeste 0 -- -- 39
2019-10-07 22:00:00 15.1 5 Nordeste 12 Nordeste 0 -- -- 45
2019-10-07 21:00:00 16.2 5 Nordeste 14 Nordeste 0 -- -- 51
2019-10-07 20:00:00 20.9 2 Sudeste 5 Noroeste 0 -- -- 41
2019-10-07 19:00:00 25.3 3 Noroeste 9 Oeste 0 -- -- 33
2019-10-07 18:00:00 25.1 2 Norte 9 Oeste 0 -- -- 31
2019-10-07 17:00:00 25.6 5 Sudoeste 12 Sudoeste 0 -- -- 30
2019-10-07 16:00:00 24.7 5 Oeste 10 Oeste 0 -- -- 28
2019-10-07 15:00:00 23.6 5 Oeste 10 Sudoeste 0 -- -- 33
2019-10-07 14:00:00 22.1 4 Sudoeste 8 Sudoeste 0 -- -- 43
2019-10-07 13:00:00 19.6 3 Noroeste 10 Oeste 0 -- -- 55
2019-10-07 12:00:00 16.7 3 Norte 7 Este 0 -- -- 63
2019-10-07 11:00:00 14.2 2 Sur 5 Sur 0 -- -- 76
2019-10-07 10:00:00 9.6 0 Calma 3 Sur 0 -- -- 96
2019-10-07 09:00:00 5.9 0 Calma 2 Este 0 -- -- 94
2019-10-07 08:00:00 6.2 0 Calma 3 Oeste 0 -- -- 93
2019-10-07 07:00:00 6.7 0 Calma 5 Oeste 0 -- -- 91
2019-10-07 06:00:00 7.4 0 Calma 3 Oeste 0 -- -- 91
2019-10-07 05:00:00 8 0 Calma 6 Norte 0 -- -- 90
2019-10-07 04:00:00 8.9 3 Nordeste 7 Nordeste 0 -- -- 87
2019-10-07 03:00:00 10.3 4 Este 13 Nordeste 0 -- -- 86
2019-10-07 02:00:00 11 8 Este 15 Este 0 -- -- 85
2019-10-07 01:00:00 11.3 6 Este 15 Este 0 -- -- 86
2019-10-07 00:00:00 12 7 Nordeste 15 Este 0 -- -- 84
2019-10-06 23:00:00 12.6 9 Este 24 Nordeste 0 -- -- 83
2019-10-06 22:00:00 13.6 13 Nordeste 23 Nordeste 0 -- -- 80
2019-10-06 21:00:00 15 11 Nordeste 21 Nordeste 0 -- -- 73
2019-10-06 20:00:00 17.9 10 Nordeste 24 Nordeste 0 -- -- 63
2019-10-06 19:00:00 23 0 Calma 9 Noroeste 0 -- -- 40
2019-10-06 18:00:00 23.1 3 Noroeste 14 Norte 0 -- -- 42
2019-10-06 17:00:00 23 4 Noroeste 22 Noroeste 0 -- -- 44
2019-10-06 16:00:00 22.1 4 Noroeste 14 Noroeste 0 -- -- 47
2019-10-06 15:00:00 21.5 3 Noroeste 12 Noroeste 0 -- -- 50
2019-10-06 14:00:00 20.1 5 Noroeste 9 Noroeste 0 -- -- 54
2019-10-06 13:00:00 18 3 Norte 12 Este 0 -- -- 65
2019-10-06 12:00:00 15.7 6 Nordeste 13 Nordeste 0 -- -- 75
2019-10-06 11:00:00 13.3 3 Este 8 Sudeste 0 -- -- 84
2019-10-06 10:00:00 10.2 0 Calma 6 Sur 0 -- -- 95
2019-10-06 09:00:00 7.7 3 Oeste 5 Oeste 0 -- -- 93
2019-10-06 08:00:00 7.9 0 Calma 6 Nordeste 0 -- -- 93
2019-10-06 07:00:00 8.2 3 Nordeste 7 Norte 0 -- -- 92
2019-10-06 06:00:00 9.1 4 Este 8 Este 0 -- -- 92
2019-10-06 05:00:00 9.5 0 Calma 8 Nordeste 0 -- -- 92
2019-10-06 04:00:00 10.1 2 Nordeste 11 Nordeste 0 -- -- 91
2019-10-06 03:00:00 10.6 4 Nordeste 12 Nordeste 0 -- -- 90
2019-10-06 02:00:00 11.3 5 Este 12 Nordeste 0 -- -- 89
2019-10-06 01:00:00 12.1 5 Este 13 Nordeste 0 -- -- 86
2019-10-06 00:00:00 12.7 7 Nordeste 14 Nordeste 0 -- -- 83
2019-10-05 23:00:00 13.5 8 Nordeste 16 Este 0 -- -- 81
2019-10-05 22:00:00 13.2 0 Calma 2 Sudeste 0 -- -- 75
2019-10-05 21:00:00 15.3 0 Calma 5 Sudoeste 0 -- -- 67
2019-10-05 20:00:00 20.6 3 Sudoeste 13 Sudoeste 0 -- -- 51
2019-10-05 19:00:00 23.8 6 Sudoeste 16 Sudoeste 0 -- -- 44
2019-10-05 18:00:00 24.5 5 Oeste 19 Oeste 0 -- -- 42
2019-10-05 17:00:00 25 7 Oeste 15 Oeste 0 -- -- 41
2019-10-05 16:00:00 24.1 5 Sudoeste 17 Sudoeste 0 -- -- 45
2019-10-05 15:00:00 22.9 5 Oeste 12 Sudoeste 0 -- -- 50
2019-10-05 14:00:00 19.8 3 Sur 10 Sur 0 -- -- 64
2019-10-05 13:00:00 16.5 4 Sudoeste 10 Este 0 -- -- 77
2019-10-05 12:00:00 13.4 4 Nordeste 9 Nordeste 0 -- -- 93
2019-10-05 11:00:00 11.8 2 Este 9 Nordeste 0 -- -- 96
2019-10-05 10:00:00 11.2 3 Este 10 Este 0 -- -- 95
2019-10-05 09:00:00 10.3 4 Este 8 Este 0 -- -- 95
2019-10-05 08:00:00 6.5 0 Calma 3 Nordeste 0 -- -- 93
2019-10-05 07:00:00 7.3 0 Calma 3 Nordeste 0 -- -- 92
2019-10-05 06:00:00 8.8 0 Calma 5 Nordeste 0 -- -- 93
2019-10-05 05:00:00 9.4 3 Nordeste 8 Nordeste 0 -- -- 94
2019-10-05 04:00:00 9.3 0 Calma 6 Nordeste 0 -- -- 92
2019-10-05 03:00:00 9.9 0 Calma 4 Este 0 -- -- 90
2019-10-05 02:00:00 10.9 0 Calma 10 Este 0 -- -- 88
2019-10-05 01:00:00 11.7 5 Nordeste 12 Nordeste 0 -- -- 88
2019-10-05 00:00:00 12.8 6 Nordeste 21 Nordeste 0 -- -- 84
2019-10-04 23:00:00 14.1 9 Nordeste 19 Nordeste 0 -- -- 80
2019-10-04 22:00:00 15.6 8 Nordeste 21 Nordeste 0 -- -- 75
2019-10-04 21:00:00 15.3 0 Calma 3 Sudeste 0 -- -- 71
2019-10-04 20:00:00 20.4 0 Calma 9 Oeste 0 -- -- 55
2019-10-04 19:00:00 23.8 5 Sudoeste 13 Noroeste 0 -- -- 44
2019-10-04 18:00:00 24.2 8 Noroeste 21 Sudoeste 0 -- -- 42
2019-10-04 17:00:00 24 8 Noroeste 23 Noroeste 0 -- -- 45
2019-10-04 16:00:00 24 11 Oeste 21 Oeste 0 -- -- 45
2019-10-04 15:00:00 23.7 5 Oeste 13 Oeste 0 -- -- 46
2019-10-04 14:00:00 21.6 6 Sudeste 14 Nordeste 0 -- -- 47
2019-10-04 13:00:00 19.9 5 Nordeste 12 Nordeste 0 -- -- 51
2019-10-04 12:00:00 17.9 3 Este 9 Nordeste 0 -- -- 60
2019-10-04 11:00:00 15.1 2 Sur 5 Sudoeste 0 -- -- 67
2019-10-04 10:00:00 11 0 Calma 5 Nordeste 0 -- -- 78
2019-10-04 09:00:00 6.2 5 Este 8 Nordeste 0 -- -- 92
2019-10-04 08:00:00 5.5 2 Sudeste 5 Norte 0 -- -- 91
2019-10-04 07:00:00 6.1 0 Calma 4 Sur 0 -- -- 90
2019-10-04 06:00:00 6.8 0 Calma 5 Sudoeste 0 -- -- 88
2019-10-04 05:00:00 7.6 2 Norte 4 Sudoeste 0 -- -- 87
2019-10-04 04:00:00 9.2 0 Calma 5 Sudeste 0 -- -- 83
2019-10-04 03:00:00 11.5 4 Sudoeste 13 Este 0 -- -- 74
2019-10-04 02:00:00 12.5 9 Este 17 Este 0 -- -- 72
2019-10-04 01:00:00 12.7 4 Este 21 Nordeste 0 -- -- 71
2019-10-04 00:00:00 13.2 8 Nordeste 18 Nordeste 0 -- -- 71
2019-10-03 23:00:00 12.6 6 Nordeste 11 Nordeste 0 -- -- 65
2019-10-03 22:00:00 13.4 5 Este 8 Nordeste 0 -- -- 59
2019-10-03 21:00:00 15.8 0 Calma 9 Sudeste 0 -- -- 54
2019-10-03 20:00:00 19.8 3 Sudeste 6 Sur 0 -- -- 47
2019-10-03 19:00:00 24.2 3 Oeste 11 Oeste 0 -- -- 35
2019-10-03 18:00:00 24.3 6 Oeste 17 Oeste 0 -- -- 34
2019-10-03 17:00:00 24 8 Oeste 20 Oeste 0 -- -- 37
2019-10-03 16:00:00 23.4 8 Oeste 22 Oeste 0 -- -- 38
2019-10-03 15:00:00 21.8 8 Oeste 19 Noroeste 0 -- -- 43
2019-10-03 14:00:00 20.5 10 Oeste 22 Noroeste 0 -- -- 49
2019-10-03 13:00:00 18.6 6 Oeste 17 Sudoeste 0 -- -- 55
2019-10-03 12:00:00 16.6 7 Oeste 12 Oeste 0 -- -- 59
2019-10-03 11:00:00 12.9 2 Noroeste 9 Este 0 -- -- 77
2019-10-03 10:00:00 8.3 4 Este 6 Este 0 -- -- 95
2019-10-03 09:00:00 4.9 3 Este 4 Este 0 -- -- 94
2019-10-03 08:00:00 5.1 0 Calma 4 Oeste 0 -- -- 91
2019-10-03 07:00:00 6 0 Calma 4 Sudoeste 0 -- -- 91
2019-10-03 06:00:00 6.7 2 Sudoeste 3 Sudoeste 0 -- -- 90
2019-10-03 05:00:00 7.7 0 Calma 5 Este 0 -- -- 88
2019-10-03 04:00:00 8.4 4 Nordeste 10 Nordeste 0 -- -- 88
2019-10-03 03:00:00 8.8 5 Nordeste 9 Nordeste 0 -- -- 87
2019-10-03 02:00:00 9.6 4 Nordeste 14 Este 0 -- -- 84
2019-10-03 01:00:00 9.7 7 Nordeste 13 Nordeste 0 -- -- 84
2019-10-03 00:00:00 10.3 7 Nordeste 20 Este 0 -- -- 83
2019-10-02 23:00:00 11.5 13 Este 19 Este 0 -- -- 78
2019-10-02 22:00:00 11.9 7 Nordeste 15 Nordeste 0 -- -- 74
2019-10-02 21:00:00 13.9 6 Este 18 Este 0 -- -- 64
2019-10-02 20:00:00 16.2 12 Este 20 Nordeste 0 -- -- 57
2019-10-02 19:00:00 18.7 8 Nordeste 22 Nordeste 0 -- -- 50
2019-10-02 18:00:00 20.6 8 Nordeste 19 Nordeste 0 -- -- 43
2019-10-02 17:00:00 21.2 6 Norte 16 Este 0 -- -- 41
2019-10-02 16:00:00 21 5 Sur 19 Nordeste 0 -- -- 40
2019-10-02 15:00:00 19.7 4 Norte 25 Norte 0 -- -- 42
2019-10-02 14:00:00 19.1 9 Este 16 Norte 0 -- -- 45
2019-10-02 13:00:00 17.8 5 Noroeste 24 Noroeste 0 -- -- 49
2019-10-02 12:00:00 15.9 5 Oeste 15 Noroeste 0 -- -- 55
2019-10-02 11:00:00 13.3 8 Oeste 13 Oeste 0 -- -- 69
2019-10-02 10:00:00 9.5 5 Oeste 11 Oeste 0 -- -- 92
2019-10-02 09:00:00 5.8 0 Calma 5 Sudoeste 0 -- -- 94
2019-10-02 08:00:00 5.3 2 Sudoeste 5 Noroeste 0 -- -- 93
2019-10-02 07:00:00 5.9 0 Calma 4 Oeste 0 -- -- 92
2019-10-02 06:00:00 6.2 2 Noroeste 4 Noroeste 0 -- -- 92
2019-10-02 05:00:00 6.5 0 Calma 5 Sudoeste 0 -- -- 90
2019-10-02 04:00:00 7.5 4 Sudoeste 8 Sudoeste 0 -- -- 92
2019-10-02 03:00:00 8.1 0 Calma 6 Sudoeste 0 -- -- 88
2019-10-02 02:00:00 9.7 4 Este 8 Este 0 -- -- 90
2019-10-02 01:00:00 9.8 5 Este 7 Este 0 -- -- 90
2019-10-02 00:00:00 9.4 0 Calma 4 Nordeste 0 -- -- 84
2019-10-01 23:00:00 11.4 2 Noroeste 8 Este 0 -- -- 78
2019-10-01 22:00:00 13.3 3 Nordeste 10 Este 0 -- -- 67
2019-10-01 21:00:00 16.2 5 Noroeste 15 Oeste 0 -- -- 54
2019-10-01 20:00:00 19.7 8 Oeste 26 Oeste 0 -- -- 41
2019-10-01 19:00:00 22.7 16 Oeste 35 Oeste 0 -- -- 34
2019-10-01 18:00:00 23.7 15 Oeste 35 Oeste 0 -- -- 33
2019-10-01 17:00:00 23.6 15 Oeste 36 Noroeste 0 -- -- 41
2019-10-01 16:00:00 23.3 19 Oeste 35 Oeste 0 -- -- 43
2019-10-01 15:00:00 22.1 19 Oeste 39 Oeste 0 -- -- 48
2019-10-01 14:00:00 21.8 18 Oeste 37 Noroeste 0 -- -- 51
2019-10-01 13:00:00 20.5 20 Oeste 35 Sudoeste 0 -- -- 56
2019-10-01 12:00:00 20 13 Oeste 24 Oeste 0 -- -- 58
2019-10-01 11:00:00 17.9 8 Oeste 22 Oeste 0 -- -- 67
2019-10-01 10:00:00 16.1 10 Sudoeste 19 Sudoeste 0 -- -- 77
2019-10-01 09:00:00 12.3 8 Sudoeste 15 Sudoeste 0 -- -- 86
2019-10-01 08:00:00 10.8 4 Sudoeste 7 Sudoeste 0 -- -- 89
2019-10-01 07:00:00 11 2 Sudoeste 9 Sudoeste 0 -- -- 87
2019-10-01 06:00:00 10.3 2 Oeste 4 Oeste 0 -- -- 90
2019-10-01 05:00:00 10.3 0 Calma 4 Noroeste 0 -- -- 89
2019-10-01 04:00:00 10.3 0 Calma 2 Este 0 -- -- 88
2019-10-01 03:00:00 10.9 0 Calma 2 Este 0 -- -- 88
2019-10-01 02:00:00 11.2 0 Calma 5 Noroeste 0 -- -- 87
2019-10-01 01:00:00 11.8 0 Calma 5 Este 0 -- -- 84
2019-10-01 00:00:00 13.3 0 Calma 3 Nordeste 0 -- -- 81
2019-09-30 23:00:00 14.1 0 Calma 6 Este 0 -- -- 79
2019-09-30 22:00:00 16 2 Este 5 Este 0 -- -- 74
2019-09-30 21:00:00 18.5 0 Calma 6 Sur 0 -- -- 69
2019-09-30 20:00:00 24.2 3 Sudoeste 12 Sudoeste 0 -- -- 51
2019-09-30 19:00:00 26.3 8 Sudoeste 18 Sudoeste 0 -- -- 43
2019-09-30 18:00:00 26.6 6 Oeste 24 Oeste 0 -- -- 44
2019-09-30 17:00:00 26.8 8 Oeste 23 Oeste 0 -- -- 45
2019-09-30 16:00:00 26.1 10 Oeste 22 Oeste 0 -- -- 48
2019-09-30 15:00:00 24.7 5 Oeste 13 Noroeste 0 -- -- 52
2019-09-30 14:00:00 23.2 3 Noroeste 13 Oeste 0 -- -- 55
2019-09-30 13:00:00 21.4 7 Oeste 13 Oeste 0 -- -- 59
2019-09-30 12:00:00 19.3 5 Oeste 12 Noroeste 0 -- -- 69
2019-09-30 11:00:00 16.8 3 Sur 6 Sudoeste 0 -- -- 77
2019-09-30 10:00:00 12.7 0 Calma 3 Nordeste 0 -- -- 95
2019-09-30 09:00:00 8.7 3 Este 4 Este 0 -- -- 94
2019-09-30 08:00:00 8.3 0 Calma 3 Sudeste 0 -- -- 92
2019-09-30 07:00:00 8.8 0 Calma 2 Sudeste 0 -- -- 92
2019-09-30 06:00:00 9.7 0 Calma 3 Sudeste 0 -- -- 91
2019-09-30 05:00:00 10.2 0 Calma 12 Sudoeste 0 -- -- 88
2019-09-30 04:00:00 10.9 0 Calma 6 Oeste 0 -- -- 89
2019-09-30 03:00:00 11.7 3 Oeste 4 Sudoeste 0 -- -- 87
2019-09-30 02:00:00 12.3 0 Calma 8 Este 0 -- -- 82
2019-09-30 01:00:00 13.1 4 Este 6 Este 0 -- -- 77
2019-09-30 00:00:00 14.3 3 Sudoeste 11 Noroeste 0 -- -- 72
2019-09-29 23:00:00 15.7 2 Oeste 8 Sudoeste 0 -- -- 60
2019-09-29 22:00:00 16.4 3 Sur 6 Sur 0 -- -- 58
2019-09-29 21:00:00 20.8 4 Sudoeste 14 Sudoeste 0 -- -- 40
2019-09-29 20:00:00 23.8 9 Sudoeste 27 Sudoeste 0 -- -- 34
2019-09-29 19:00:00 26.6 14 Sudoeste 29 Sudoeste 0 -- -- 29
2019-09-29 18:00:00 27.2 15 Oeste 30 Sudoeste 0 -- -- 28
2019-09-29 17:00:00 27.3 15 Oeste 30 Oeste 0 -- -- 29
2019-09-29 16:00:00 26.6 15 Oeste 31 Oeste 0 -- -- 30
2019-09-29 15:00:00 25.6 11 Oeste 25 Oeste 0 -- -- 29
2019-09-29 14:00:00 24.5 12 Oeste 24 Oeste 0 -- -- 26
2019-09-29 13:00:00 22.8 9 Oeste 21 Oeste 0 -- -- 34
2019-09-29 12:00:00 20.1 8 Noroeste 15 Oeste 0 -- -- 48
2019-09-29 11:00:00 15.9 6 Sudoeste 12 Sudoeste 0 -- -- 56
2019-09-29 10:00:00 11 3 Oeste 8 Sudoeste 0 -- -- 74
2019-09-29 09:00:00 6.2 2 Sudoeste 4 Sur 0 -- -- 91
2019-09-29 08:00:00 5.4 3 Noroeste 4 Nordeste 0 -- -- 88
2019-09-29 07:00:00 6.2 3 Este 6 Este 0 -- -- 88
2019-09-29 06:00:00 6.2 5 Este 9 Este 0 -- -- 88
2019-09-29 05:00:00 5.6 0 Calma 3 Oeste 0 -- -- 90
2019-09-29 04:00:00 5.7 0 Calma 3 Oeste 0 -- -- 88
2019-09-29 03:00:00 6.7 0 Calma 7 Sur 0 -- -- 83
2019-09-29 02:00:00 6.8 2 Noroeste 5 Nordeste 0 -- -- 85
2019-09-29 01:00:00 7.9 0 Calma 5 Este 0 -- -- 82
2019-09-29 00:00:00 9.3 2 Nordeste 5 Este 0 -- -- 74
2019-09-28 23:00:00 10.5 3 Este 8 Este 0 -- -- 73
2019-09-28 22:00:00 12 4 Este 5 Este 0 -- -- 69
2019-09-28 21:00:00 16.2 3 Sudoeste 7 Sudoeste 0 -- -- 52
2019-09-28 20:00:00 21.7 4 Sudoeste 13 Oeste 0 -- -- 36
2019-09-28 19:00:00 24.6 9 Oeste 18 Oeste 0 -- -- 29
2019-09-28 18:00:00 25.3 9 Oeste 21 Oeste 0 -- -- 31
2019-09-28 17:00:00 25.2 8 Oeste 20 Oeste 0 -- -- 27
2019-09-28 16:00:00 24.4 7 Oeste 19 Oeste 0 -- -- 31
2019-09-28 15:00:00 23 7 Oeste 18 Oeste 0 -- -- 37
2019-09-28 14:00:00 20.9 5 Noroeste 14 Noroeste 0 -- -- 54
2019-09-28 13:00:00 19 4 Noroeste 13 Sudoeste 0 -- -- 62
2019-09-28 12:00:00 16.3 4 Sudoeste 11 Sudoeste 0 -- -- 71
2019-09-28 11:00:00 12.8 3 Nordeste 8 Este 0 -- -- 85
2019-09-28 10:00:00 11.7 3 Este 10 Este 0 -- -- 91
2019-09-28 09:00:00 11.5 4 Este 10 Este 0 -- -- 94
2019-09-28 08:00:00 11.6 4 Este 8 Este 0 -- -- 95
2019-09-28 07:00:00 10.7 3 Sudoeste 5 Sudoeste 0 -- -- 95
2019-09-28 06:00:00 9.7 0 Calma 5 Este 0 -- -- 94
2019-09-28 05:00:00 7.7 0 Calma 4 Nordeste 0 -- -- 92
2019-09-28 04:00:00 8.8 2 Noroeste 4 Sur 0 -- -- 91
2019-09-28 03:00:00 9.2 0 Calma 4 Norte 0 -- -- 89
2019-09-28 02:00:00 10.5 2 Norte 7 Este 0 -- -- 89
2019-09-28 01:00:00 10.9 4 Nordeste 6 Nordeste 0 -- -- 88
2019-09-28 00:00:00 12.6 3 Este 9 Este 0 -- -- 85
2019-09-27 23:00:00 13.1 3 Nordeste 10 Nordeste 0 -- -- 85
2019-09-27 22:00:00 13.6 0 Calma 12 Noroeste 0 -- -- 70
2019-09-27 21:00:00 15.7 2 Sudeste 4 Sudeste 0 -- -- 65
2019-09-27 20:00:00 20.7 2 Sudoeste 17 Sudoeste 0 -- -- 47
2019-09-27 19:00:00 23.3 10 Oeste 23 Oeste 0 -- -- 38
2019-09-27 18:00:00 23.2 12 Oeste 29 Oeste 0 -- -- 41
2019-09-27 17:00:00 24.3 13 Oeste 35 Oeste 0 -- -- 39
2019-09-27 16:00:00 23.6 15 Oeste 28 Oeste 0 -- -- 40
2019-09-27 15:00:00 22.7 19 Oeste 31 Oeste 0 -- -- 42
2019-09-27 14:00:00 21.8 12 Oeste 31 Oeste 0 -- -- 51
2019-09-27 13:00:00 20.3 14 Oeste 23 Oeste 0 -- -- 53
2019-09-27 12:00:00 18.9 8 Sudoeste 17 Sudoeste 0 -- -- 55
2019-09-27 11:00:00 15.7 8 Sudoeste 15 Sudoeste 0 -- -- 64
2019-09-27 10:00:00 11.3 7 Oeste 14 Noroeste 0 -- -- 83
2019-09-27 09:00:00 5.3 0 Calma 2 Norte 0 -- -- 94
2019-09-27 08:00:00 4.8 0 Calma 3 Norte 0 -- -- 91
2019-09-27 07:00:00 5.6 0 Calma 3 Nordeste 0 -- -- 90
2019-09-27 06:00:00 6.5 0 Calma 4 Sudoeste 0 -- -- 89
2019-09-27 05:00:00 7.3 2 Sur 6 Sudoeste 0 -- -- 86
2019-09-27 04:00:00 7.1 2 Oeste 5 Oeste 0 -- -- 86
2019-09-27 03:00:00 8.2 2 Sudoeste 4 Oeste 0 -- -- 85
2019-09-27 02:00:00 8.6 2 Sudoeste 4 Noroeste 0 -- -- 82
2019-09-27 01:00:00 8.8 2 Este 5 Oeste 0 -- -- 81
2019-09-27 00:00:00 9.7 0 Calma 4 Este 0 -- -- 79
2019-09-26 23:00:00 11.1 3 Este 4 Este 0 -- -- 72
2019-09-26 22:00:00 12.9 0 Calma 4 Nordeste 0 -- -- 69
2019-09-26 21:00:00 15.7 0 Calma 7 Sudoeste 0 -- -- 65
2019-09-26 20:00:00 21.8 5 Sudoeste 18 Sudoeste 0 -- -- 37
2019-09-26 19:00:00 24.5 12 Sudoeste 22 Sudoeste 0 -- -- 29
2019-09-26 18:00:00 25 13 Sudoeste 25 Oeste 0 -- -- 30
2019-09-26 17:00:00 24.8 13 Oeste 26 Oeste 0 -- -- 34
2019-09-26 16:00:00 24.1 16 Oeste 28 Oeste 0 -- -- 38
2019-09-26 15:00:00 23.3 13 Oeste 26 Oeste 0 -- -- 44
2019-09-26 14:00:00 22.4 13 Oeste 26 Sur 0 -- -- 48
2019-09-26 13:00:00 20.7 13 Sudoeste 24 Sudoeste 0 -- -- 52
2019-09-26 12:00:00 18.4 11 Sudoeste 18 Sudoeste 0 -- -- 61
2019-09-26 11:00:00 15.9 8 Sudoeste 17 Sudoeste 0 -- -- 70
2019-09-26 10:00:00 12.8 7 Sudoeste 13 Sudoeste 0 -- -- 84
2019-09-26 09:00:00 8.5 0 Calma 3 Noroeste 0 -- -- 94
2019-09-26 08:00:00 7.9 0 Calma 3 Noroeste 0 -- -- 91
2019-09-26 07:00:00 8.8 2 Noroeste 5 Oeste 0 -- -- 91
2019-09-26 06:00:00 9.3 3 Oeste 6 Sudoeste 0 -- -- 91
2019-09-26 05:00:00 9.6 3 Sudoeste 6 Sudoeste 0 -- -- 89
2019-09-26 04:00:00 9.6 2 Oeste 5 Oeste 0 -- -- 89
2019-09-26 03:00:00 9.8 3 Noroeste 6 Noroeste 0 -- -- 88
2019-09-26 02:00:00 10.2 0 Calma 6 Oeste 0 -- -- 86
2019-09-26 01:00:00 10.6 3 Oeste 8 Sudoeste 0 -- -- 85
2019-09-26 00:00:00 11.2 2 Noroeste 4 Noroeste 0 -- -- 83
2019-09-25 23:00:00 12.2 0 Calma 5 Oeste 0 -- -- 79
2019-09-25 22:00:00 13.6 2 Oeste 10 Sudoeste 0 -- -- 75
2019-09-25 21:00:00 16 3 Sudoeste 9 Sur 0 -- -- 63
2019-09-25 20:00:00 18.5 5 Sudoeste 20 Sudoeste 0 -- -- 56
2019-09-25 19:00:00 19.8 8 Oeste 22 Oeste 0 -- -- 50
2019-09-25 18:00:00 20.7 12 Oeste 24 Sudoeste 0 -- -- 48
2019-09-25 17:00:00 20.4 12 Oeste 25 Oeste 0 -- -- 49
2019-09-25 16:00:00 20.1 8 Oeste 22 Oeste 0 -- -- 48
2019-09-25 15:00:00 20 13 Oeste 23 Oeste 0 -- -- 49
2019-09-25 14:00:00 19.3 9 Noroeste 21 Noroeste 0 -- -- 50
2019-09-25 13:00:00 17.2 6 Oeste 14 Oeste 0 -- -- 62
2019-09-25 12:00:00 15.2 4 Noroeste 11 Noroeste 0 -- -- 69
2019-09-25 11:00:00 12.1 0 Calma 10 Noroeste 0 -- -- 83
2019-09-25 10:00:00 10.2 6 Oeste 12 Oeste 0 -- -- 87
2019-09-25 09:00:00 8.2 2 Noroeste 5 Noroeste 0 -- -- 92
2019-09-25 08:00:00 7.9 2 Sudoeste 7 Sudoeste 0 -- -- 87
2019-09-25 07:00:00 8.9 5 Sudoeste 12 Sudoeste 0 -- -- 85
2019-09-25 06:00:00 9.4 6 Sudoeste 12 Sudoeste 0 -- -- 83
2019-09-25 05:00:00 10 7 Sudoeste 12 Sudoeste 0 -- -- 80
2019-09-25 04:00:00 11 6 Sudoeste 16 Sudoeste 0 -- -- 76
2019-09-25 03:00:00 11.5 6 Sudoeste 14 Sudoeste 0 -- -- 73
2019-09-25 02:00:00 12.3 8 Oeste 14 Sudoeste 0 -- -- 70
2019-09-25 01:00:00 13.7 5 Oeste 18 Oeste 0 -- -- 69
2019-09-25 00:00:00 14.3 5 Sudoeste 9 Oeste 0 -- -- 69
2019-09-24 23:00:00 16.4 7 Oeste 18 Oeste 0 -- -- 61
2019-09-24 22:00:00 17.4 7 Oeste 22 Oeste 0 -- -- 62
2019-09-24 21:00:00 19.1 17 Oeste 28 Oeste 0 -- -- 54
2019-09-24 20:00:00 20.5 17 Oeste 43 Oeste 0 -- -- 51
2019-09-24 19:00:00 21.7 21 Oeste 42 Sudoeste 0 -- -- 48
2019-09-24 18:00:00 22.3 24 Sudoeste 44 Oeste 0 -- -- 52
2019-09-24 17:00:00 22.5 29 Sudoeste 48 Oeste 0 -- -- 52
2019-09-24 16:00:00 22.8 25 Sudoeste 48 Sudoeste 0 -- -- 54
2019-09-24 15:00:00 21.3 22 Oeste 37 Sudoeste 0 -- -- 62
2019-09-24 14:00:00 18.9 15 Sudoeste 30 Oeste 0 -- -- 72
2019-09-24 13:00:00 18 15 Sudoeste 26 Sudoeste 0 -- -- 75
2019-09-24 12:00:00 15.8 12 Sur 24 Sur 0 -- -- 79
2019-09-24 11:00:00 14.3 14 Sudoeste 24 Sur 0 -- -- 85
2019-09-24 10:00:00 13.1 12 Sudoeste 20 Sudoeste 0 -- -- 87
2019-09-24 09:00:00 12.8 10 Sudoeste 24 Sudoeste 0 -- -- 85
2019-09-24 08:00:00 11.1 5 Oeste 11 Sudoeste 0 -- -- 90
2019-09-24 07:00:00 10.5 2 Norte 12 Sur 0 -- -- 88
2019-09-24 06:00:00 10.6 5 Sudoeste 10 Sudoeste 0 -- -- 90
2019-09-24 05:00:00 10.9 3 Sudoeste 6 Oeste 0 -- -- 86
2019-09-24 04:00:00 11.5 2 Sudoeste 12 Sudoeste 0 -- -- 82
2019-09-24 03:00:00 12.1 6 Sudoeste 12 Sudoeste 0 -- -- 80
2019-09-24 02:00:00 12.4 4 Oeste 11 Sudoeste 0 -- -- 79
2019-09-24 01:00:00 13.2 5 Sudoeste 9 Sudoeste 0 -- -- 75
2019-09-24 00:00:00 13.7 4 Sudoeste 10 Sudoeste 0 -- -- 74
2019-09-23 23:00:00 14.9 6 Sudoeste 11 Sudoeste 0 -- -- 71
2019-09-23 22:00:00 15.6 6 Sudoeste 11 Sudoeste 0 -- -- 67
2019-09-23 21:00:00 17 5 Sudoeste 12 Sudoeste 0 -- -- 62
2019-09-23 20:00:00 18.5 5 Sudoeste 19 Oeste 0 -- -- 58
2019-09-23 19:00:00 20.2 10 Oeste 24 Oeste 0 -- -- 50
2019-09-23 18:00:00 20.3 10 Oeste 26 Oeste 0 -- -- 52
2019-09-23 17:00:00 20.2 14 Sudoeste 30 Oeste 0 -- -- 50
2019-09-23 16:00:00 19.8 15 Sudoeste 28 Oeste 0 -- -- 52
2019-09-23 15:00:00 19.5 12 Oeste 27 Sudoeste 0 -- -- 53
2019-09-23 14:00:00 17.3 13 Sudoeste 28 Oeste 0 -- -- 59
2019-09-23 13:00:00 16.3 13 Sudoeste 22 Sudoeste 0 -- -- 64
2019-09-23 12:00:00 14.9 9 Sudoeste 17 Sudoeste 0 -- -- 74
2019-09-23 11:00:00 12.9 10 Sudoeste 17 Oeste 0 -- -- 79
2019-09-23 10:00:00 11.5 4 Sudoeste 11 Sur 0 -- -- 85
2019-09-23 09:00:00 9.6 4 Sudoeste 12 Sudoeste 0 -- -- 91
2019-09-23 08:00:00 8.3 2 Oeste 7 Sudoeste 0 -- -- 91
2019-09-23 07:00:00 8.4 3 Sudoeste 6 Sudoeste 0 -- -- 90
2019-09-23 06:00:00 9 3 Oeste 6 Sudoeste 0 -- -- 89
2019-09-23 05:00:00 9 3 Sudoeste 6 Sudoeste 0 -- -- 89
2019-09-23 04:00:00 9.2 0 Calma 5 Sudeste 0 -- -- 87
2019-09-23 03:00:00 10.9 2 Nordeste 16 Sudoeste 0 -- -- 80
2019-09-23 02:00:00 12.4 10 Sudoeste 16 Sudoeste 0 -- -- 75
2019-09-23 01:00:00 12.1 8 Sudoeste 15 Sudoeste 0 -- -- 76
2019-09-23 00:00:00 8.7 0 Calma 5 Sudoeste 0 -- -- 87
2019-09-22 23:00:00 9.3 2 Nordeste 6 Este 0 -- -- 85
2019-09-22 22:00:00 10.5 0 Calma 3 Sur 0 -- -- 82
2019-09-22 21:00:00 12.9 0 Calma 10 Oeste 0 -- -- 73
2019-09-22 20:00:00 16.7 7 Oeste 19 Oeste 0 -- -- 55
2019-09-22 19:00:00 19.3 6 Oeste 24 Oeste 0 -- -- 47
2019-09-22 18:00:00 19.2 13 Oeste 29 Oeste 0 -- -- 46
2019-09-22 17:00:00 18.5 13 Oeste 34 Oeste 0 -- -- 51
2019-09-22 16:00:00 18.5 19 Oeste 36 Oeste 0 -- -- 49
2019-09-22 15:00:00 17.5 13 Oeste 30 Sudoeste 0 -- -- 62
2019-09-22 14:00:00 17 18 Oeste 31 Oeste 0 -- -- 59
2019-09-22 13:00:00 14.9 14 Oeste 27 Oeste 0 -- -- 76
2019-09-22 12:00:00 13.8 13 Oeste 25 Oeste 0 -- -- 82
2019-09-22 11:00:00 12.6 11 Oeste 22 Oeste 0 -- -- 86
2019-09-22 10:00:00 12 9 Sudoeste 21 Sudoeste 0 -- -- 90
2019-09-22 09:00:00 11.7 10 Oeste 21 Sudoeste 0 -- -- 90
2019-09-22 08:00:00 11.3 9 Sudoeste 18 Sudoeste 0 -- -- 92
2019-09-22 07:00:00 11.5 9 Sudoeste 15 Sudoeste 0 -- -- 92
2019-09-22 06:00:00 12 8 Sudoeste 24 Sudoeste 0 -- -- 90
2019-09-22 05:00:00 12.4 11 Sudoeste 25 Oeste 0.6 -- -- 92
2019-09-22 04:00:00 13 10 Sudoeste 37 Oeste 1.2 -- -- 91
2019-09-22 03:00:00 15 15 Sudoeste 27 Sudoeste 2.8 -- -- 92
2019-09-22 02:00:00 15.4 10 Sudoeste 28 Sur 2.2 -- -- 91
2019-09-22 01:00:00 15.9 9 Sudoeste 21 Sudoeste 1 -- -- 87
2019-09-22 00:00:00 16.8 13 Sudoeste 27 Sudoeste 0 -- -- 82